sensor_id;sensor_type;location;lat;lon;timestamp;P1;durP1;ratioP1;P2;durP2;ratioP2
23608;SDS011;11982;50.810;4.442;2023-08-01T00:00:26;5.30;;;3.50;;
23608;SDS011;11982;50.810;4.442;2023-08-01T00:02:53;5.47;;;3.83;;
23608;SDS011;11982;50.810;4.442;2023-08-01T00:05:19;7.13;;;3.80;;
23608;SDS011;11982;50.810;4.442;2023-08-01T00:07:45;7.25;;;3.80;;
23608;SDS011;11982;50.810;4.442;2023-08-01T00:10:11;6.07;;;4.10;;
23608;SDS011;11982;50.810;4.442;2023-08-01T00:12:36;8.63;;;3.88;;
23608;SDS011;11982;50.810;4.442;2023-08-01T00:15:03;6.30;;;3.70;;
23608;SDS011;11982;50.810;4.442;2023-08-01T00:17:29;9.32;;;4.47;;
23608;SDS011;11982;50.810;4.442;2023-08-01T00:19:55;13.55;;;5.13;;
23608;SDS011;11982;50.810;4.442;2023-08-01T00:22:21;9.52;;;4.53;;
23608;SDS011;11982;50.810;4.442;2023-08-01T00:24:47;6.53;;;4.43;;
23608;SDS011;11982;50.810;4.442;2023-08-01T00:27:13;5.15;;;4.10;;
23608;SDS011;11982;50.810;4.442;2023-08-01T00:29:39;8.02;;;4.50;;
23608;SDS011;11982;50.810;4.442;2023-08-01T00:32:04;9.85;;;4.38;;
23608;SDS011;11982;50.810;4.442;2023-08-01T00:34:30;8.93;;;4.72;;
23608;SDS011;11982;50.810;4.442;2023-08-01T00:36:56;8.10;;;5.05;;
23608;SDS011;11982;50.810;4.442;2023-08-01T00:39:23;8.73;;;4.47;;
23608;SDS011;11982;50.810;4.442;2023-08-01T00:41:48;8.82;;;5.03;;
23608;SDS011;11982;50.810;4.442;2023-08-01T00:44:14;8.07;;;4.75;;
23608;SDS011;11982;50.810;4.442;2023-08-01T00:46:40;7.97;;;5.55;;
23608;SDS011;11982;50.810;4.442;2023-08-01T00:49:06;12.73;;;5.50;;
23608;SDS011;11982;50.810;4.442;2023-08-01T00:51:33;8.52;;;5.22;;
23608;SDS011;11982;50.810;4.442;2023-08-01T00:53:59;12.65;;;5.80;;
23608;SDS011;11982;50.810;4.442;2023-08-01T00:56:25;9.50;;;5.63;;
23608;SDS011;11982;50.810;4.442;2023-08-01T00:58:56;12.43;;;5.75;;
23608;SDS011;11982;50.810;4.442;2023-08-01T01:01:22;11.35;;;5.57;;
23608;SDS011;11982;50.810;4.442;2023-08-01T01:03:48;11.77;;;5.78;;
23608;SDS011;11982;50.810;4.442;2023-08-01T01:06:23;11.85;;;5.97;;
23608;SDS011;11982;50.810;4.442;2023-08-01T01:08:53;11.60;;;6.13;;
23608;SDS011;11982;50.810;4.442;2023-08-01T01:11:20;10.10;;;5.57;;
23608;SDS011;11982;50.810;4.442;2023-08-01T01:13:46;12.35;;;5.97;;
23608;SDS011;11982;50.810;4.442;2023-08-01T01:16:11;16.05;;;7.05;;
23608;SDS011;11982;50.810;4.442;2023-08-01T01:18:37;11.65;;;6.80;;
23608;SDS011;11982;50.810;4.442;2023-08-01T01:21:03;12.30;;;6.82;;
23608;SDS011;11982;50.810;4.442;2023-08-01T01:23:29;16.15;;;7.82;;
23608;SDS011;11982;50.810;4.442;2023-08-01T01:25:57;13.57;;;6.68;;
23608;SDS011;11982;50.810;4.442;2023-08-01T01:28:23;19.55;;;7.80;;
23608;SDS011;11982;50.810;4.442;2023-08-01T01:30:50;14.18;;;7.70;;
23608;SDS011;11982;50.810;4.442;2023-08-01T01:33:18;11.82;;;7.57;;
23608;SDS011;11982;50.810;4.442;2023-08-01T01:35:44;17.33;;;8.10;;
23608;SDS011;11982;50.810;4.442;2023-08-01T01:38:09;16.17;;;7.68;;
23608;SDS011;11982;50.810;4.442;2023-08-01T01:40:35;12.35;;;7.60;;
23608;SDS011;11982;50.810;4.442;2023-08-01T01:43:01;13.45;;;7.72;;
23608;SDS011;11982;50.810;4.442;2023-08-01T01:45:27;17.50;;;7.80;;
23608;SDS011;11982;50.810;4.442;2023-08-01T01:47:53;20.63;;;7.68;;
23608;SDS011;11982;50.810;4.442;2023-08-01T01:50:19;14.93;;;7.70;;
23608;SDS011;11982;50.810;4.442;2023-08-01T01:52:45;22.02;;;7.80;;
23608;SDS011;11982;50.810;4.442;2023-08-01T01:55:11;18.10;;;7.88;;
23608;SDS011;11982;50.810;4.442;2023-08-01T01:57:37;16.65;;;7.93;;
23608;SDS011;11982;50.810;4.442;2023-08-01T02:00:05;18.48;;;7.95;;
23608;SDS011;11982;50.810;4.442;2023-08-01T02:02:35;15.32;;;7.40;;
23608;SDS011;11982;50.810;4.442;2023-08-01T02:05:01;16.40;;;7.93;;
23608;SDS011;11982;50.810;4.442;2023-08-01T02:07:29;12.75;;;7.82;;
23608;SDS011;11982;50.810;4.442;2023-08-01T02:09:55;18.02;;;6.70;;
23608;SDS011;11982;50.810;4.442;2023-08-01T02:12:21;15.65;;;7.65;;
23608;SDS011;11982;50.810;4.442;2023-08-01T02:14:46;13.02;;;6.50;;
23608;SDS011;11982;50.810;4.442;2023-08-01T02:17:12;15.20;;;7.20;;
23608;SDS011;11982;50.810;4.442;2023-08-01T02:19:38;12.30;;;6.38;;
23608;SDS011;11982;50.810;4.442;2023-08-01T02:22:05;16.02;;;7.70;;
23608;SDS011;11982;50.810;4.442;2023-08-01T02:24:31;17.45;;;8.75;;
23608;SDS011;11982;50.810;4.442;2023-08-01T02:26:56;16.20;;;7.93;;
23608;SDS011;11982;50.810;4.442;2023-08-01T02:29:22;19.63;;;8.13;;
23608;SDS011;11982;50.810;4.442;2023-08-01T02:31:48;20.98;;;8.40;;
23608;SDS011;11982;50.810;4.442;2023-08-01T02:34:13;21.75;;;8.38;;
23608;SDS011;11982;50.810;4.442;2023-08-01T02:36:39;21.88;;;8.57;;
23608;SDS011;11982;50.810;4.442;2023-08-01T02:39:05;15.70;;;8.45;;
23608;SDS011;11982;50.810;4.442;2023-08-01T02:41:32;23.05;;;8.50;;
23608;SDS011;11982;50.810;4.442;2023-08-01T02:43:58;24.90;;;9.90;;
23608;SDS011;11982;50.810;4.442;2023-08-01T02:46:24;16.58;;;10.00;;
23608;SDS011;11982;50.810;4.442;2023-08-01T02:48:52;16.27;;;9.15;;
23608;SDS011;11982;50.810;4.442;2023-08-01T02:51:17;21.63;;;9.00;;
23608;SDS011;11982;50.810;4.442;2023-08-01T02:53:43;20.15;;;8.90;;
23608;SDS011;11982;50.810;4.442;2023-08-01T02:56:08;26.30;;;9.82;;
23608;SDS011;11982;50.810;4.442;2023-08-01T02:58:35;22.17;;;10.38;;
23608;SDS011;11982;50.810;4.442;2023-08-01T03:01:01;20.88;;;9.85;;
23608;SDS011;11982;50.810;4.442;2023-08-01T03:03:32;23.98;;;10.40;;
23608;SDS011;11982;50.810;4.442;2023-08-01T03:05:57;23.02;;;10.18;;
23608;SDS011;11982;50.810;4.442;2023-08-01T03:08:25;24.75;;;9.63;;
23608;SDS011;11982;50.810;4.442;2023-08-01T03:10:51;23.23;;;10.60;;
23608;SDS011;11982;50.810;4.442;2023-08-01T03:13:16;17.83;;;9.65;;
23608;SDS011;11982;50.810;4.442;2023-08-01T03:15:42;30.73;;;11.80;;
23608;SDS011;11982;50.810;4.442;2023-08-01T03:18:08;26.08;;;10.77;;
23608;SDS011;11982;50.810;4.442;2023-08-01T03:20:33;24.05;;;10.30;;
23608;SDS011;11982;50.810;4.442;2023-08-01T03:22:59;22.25;;;9.32;;
23608;SDS011;11982;50.810;4.442;2023-08-01T03:25:27;22.35;;;9.45;;
23608;SDS011;11982;50.810;4.442;2023-08-01T03:27:53;25.17;;;10.10;;
23608;SDS011;11982;50.810;4.442;2023-08-01T03:30:19;20.50;;;10.05;;
23608;SDS011;11982;50.810;4.442;2023-08-01T03:32:46;22.83;;;10.10;;
23608;SDS011;11982;50.810;4.442;2023-08-01T03:35:12;23.40;;;9.75;;
23608;SDS011;11982;50.810;4.442;2023-08-01T03:37:41;30.75;;;9.63;;
23608;SDS011;11982;50.810;4.442;2023-08-01T03:40:07;24.35;;;9.82;;
23608;SDS011;11982;50.810;4.442;2023-08-01T03:42:34;33.28;;;11.25;;
23608;SDS011;11982;50.810;4.442;2023-08-01T03:45:00;26.60;;;10.70;;
23608;SDS011;11982;50.810;4.442;2023-08-01T03:47:25;32.38;;;11.15;;
23608;SDS011;11982;50.810;4.442;2023-08-01T03:49:51;35.35;;;11.80;;
23608;SDS011;11982;50.810;4.442;2023-08-01T03:52:17;23.15;;;11.50;;
23608;SDS011;11982;50.810;4.442;2023-08-01T03:54:44;31.95;;;11.55;;
23608;SDS011;11982;50.810;4.442;2023-08-01T03:57:09;30.05;;;11.48;;
23608;SDS011;11982;50.810;4.442;2023-08-01T03:59:35;24.98;;;10.68;;
23608;SDS011;11982;50.810;4.442;2023-08-01T04:02:01;28.13;;;10.30;;
23608;SDS011;11982;50.810;4.442;2023-08-01T04:04:27;29.30;;;11.05;;
23608;SDS011;11982;50.810;4.442;2023-08-01T04:06:53;27.02;;;11.13;;
23608;SDS011;11982;50.810;4.442;2023-08-01T04:09:19;25.40;;;10.13;;
23608;SDS011;11982;50.810;4.442;2023-08-01T04:11:44;27.13;;;10.55;;
23608;SDS011;11982;50.810;4.442;2023-08-01T04:14:10;28.77;;;10.50;;
23608;SDS011;11982;50.810;4.442;2023-08-01T04:16:36;27.40;;;10.43;;
23608;SDS011;11982;50.810;4.442;2023-08-01T04:19:01;28.30;;;10.57;;
23608;SDS011;11982;50.810;4.442;2023-08-01T04:21:27;25.88;;;10.23;;
23608;SDS011;11982;50.810;4.442;2023-08-01T04:23:52;30.88;;;9.82;;
23608;SDS011;11982;50.810;4.442;2023-08-01T04:26:18;30.92;;;10.57;;
23608;SDS011;11982;50.810;4.442;2023-08-01T04:28:45;25.05;;;10.05;;
23608;SDS011;11982;50.810;4.442;2023-08-01T04:31:12;25.02;;;10.80;;
23608;SDS011;11982;50.810;4.442;2023-08-01T04:33:37;22.17;;;10.00;;
23608;SDS011;11982;50.810;4.442;2023-08-01T04:36:03;37.53;;;11.25;;
23608;SDS011;11982;50.810;4.442;2023-08-01T04:38:35;26.40;;;11.07;;
23608;SDS011;11982;50.810;4.442;2023-08-01T04:41:02;28.85;;;11.23;;
23608;SDS011;11982;50.810;4.442;2023-08-01T04:43:28;23.20;;;11.35;;
23608;SDS011;11982;50.810;4.442;2023-08-01T04:45:54;29.52;;;11.38;;
23608;SDS011;11982;50.810;4.442;2023-08-01T04:48:20;31.73;;;10.77;;
23608;SDS011;11982;50.810;4.442;2023-08-01T04:50:46;28.08;;;10.82;;
23608;SDS011;11982;50.810;4.442;2023-08-01T04:53:12;30.05;;;11.77;;
23608;SDS011;11982;50.810;4.442;2023-08-01T04:55:37;27.58;;;11.45;;
23608;SDS011;11982;50.810;4.442;2023-08-01T04:58:03;29.80;;;11.60;;
23608;SDS011;11982;50.810;4.442;2023-08-01T05:00:29;28.60;;;11.48;;
23608;SDS011;11982;50.810;4.442;2023-08-01T05:02:55;31.05;;;11.50;;
23608;SDS011;11982;50.810;4.442;2023-08-01T05:05:20;27.60;;;10.57;;
23608;SDS011;11982;50.810;4.442;2023-08-01T05:07:49;27.88;;;10.27;;
23608;SDS011;11982;50.810;4.442;2023-08-01T05:10:20;24.27;;;9.85;;
23608;SDS011;11982;50.810;4.442;2023-08-01T05:12:46;21.52;;;10.57;;
23608;SDS011;11982;50.810;4.442;2023-08-01T05:15:12;22.20;;;9.20;;
23608;SDS011;11982;50.810;4.442;2023-08-01T05:17:38;25.33;;;10.38;;
23608;SDS011;11982;50.810;4.442;2023-08-01T05:20:04;27.85;;;9.50;;
23608;SDS011;11982;50.810;4.442;2023-08-01T05:22:30;19.25;;;9.50;;
23608;SDS011;11982;50.810;4.442;2023-08-01T05:24:56;25.80;;;8.98;;
23608;SDS011;11982;50.810;4.442;2023-08-01T05:27:21;28.98;;;10.20;;
23608;SDS011;11982;50.810;4.442;2023-08-01T05:29:47;28.10;;;10.07;;
23608;SDS011;11982;50.810;4.442;2023-08-01T05:32:13;23.65;;;9.27;;
23608;SDS011;11982;50.810;4.442;2023-08-01T05:34:38;36.85;;;11.43;;
23608;SDS011;11982;50.810;4.442;2023-08-01T05:37:04;22.60;;;9.27;;
23608;SDS011;11982;50.810;4.442;2023-08-01T05:39:30;19.90;;;8.93;;
23608;SDS011;11982;50.810;4.442;2023-08-01T05:41:56;22.80;;;9.02;;
23608;SDS011;11982;50.810;4.442;2023-08-01T05:44:21;23.95;;;9.73;;
23608;SDS011;11982;50.810;4.442;2023-08-01T05:46:47;26.50;;;9.52;;
23608;SDS011;11982;50.810;4.442;2023-08-01T05:49:13;21.67;;;9.02;;
23608;SDS011;11982;50.810;4.442;2023-08-01T05:51:38;25.88;;;8.90;;
23608;SDS011;11982;50.810;4.442;2023-08-01T05:54:04;22.63;;;9.18;;
23608;SDS011;11982;50.810;4.442;2023-08-01T05:56:29;25.63;;;8.90;;
23608;SDS011;11982;50.810;4.442;2023-08-01T05:58:55;17.85;;;8.18;;
23608;SDS011;11982;50.810;4.442;2023-08-01T06:01:21;24.92;;;8.40;;
23608;SDS011;11982;50.810;4.442;2023-08-01T06:03:47;26.58;;;8.65;;
23608;SDS011;11982;50.810;4.442;2023-08-01T06:06:13;23.42;;;8.02;;
23608;SDS011;11982;50.810;4.442;2023-08-01T06:08:38;18.15;;;7.93;;
23608;SDS011;11982;50.810;4.442;2023-08-01T06:11:04;25.50;;;8.40;;
23608;SDS011;11982;50.810;4.442;2023-08-01T06:13:30;23.50;;;8.30;;
23608;SDS011;11982;50.810;4.442;2023-08-01T06:15:55;21.33;;;8.20;;
23608;SDS011;11982;50.810;4.442;2023-08-01T06:18:21;22.05;;;8.48;;
23608;SDS011;11982;50.810;4.442;2023-08-01T06:20:47;23.80;;;8.27;;
23608;SDS011;11982;50.810;4.442;2023-08-01T06:23:13;17.38;;;7.80;;
23608;SDS011;11982;50.810;4.442;2023-08-01T06:25:38;24.02;;;9.27;;
23608;SDS011;11982;50.810;4.442;2023-08-01T06:28:04;21.35;;;8.35;;
23608;SDS011;11982;50.810;4.442;2023-08-01T06:30:30;25.52;;;9.38;;
23608;SDS011;11982;50.810;4.442;2023-08-01T06:32:55;18.65;;;7.45;;
23608;SDS011;11982;50.810;4.442;2023-08-01T06:35:21;21.27;;;7.72;;
23608;SDS011;11982;50.810;4.442;2023-08-01T06:37:47;23.05;;;7.30;;
23608;SDS011;11982;50.810;4.442;2023-08-01T06:40:12;19.10;;;7.60;;
23608;SDS011;11982;50.810;4.442;2023-08-01T06:42:38;20.17;;;7.70;;
23608;SDS011;11982;50.810;4.442;2023-08-01T06:45:06;19.08;;;7.63;;
23608;SDS011;11982;50.810;4.442;2023-08-01T06:47:32;19.60;;;7.97;;
23608;SDS011;11982;50.810;4.442;2023-08-01T06:49:57;20.67;;;7.85;;
23608;SDS011;11982;50.810;4.442;2023-08-01T06:52:23;21.80;;;7.60;;
23608;SDS011;11982;50.810;4.442;2023-08-01T06:54:48;19.58;;;7.30;;
23608;SDS011;11982;50.810;4.442;2023-08-01T06:57:14;21.88;;;8.55;;
23608;SDS011;11982;50.810;4.442;2023-08-01T06:59:40;19.23;;;8.30;;
23608;SDS011;11982;50.810;4.442;2023-08-01T07:02:06;21.02;;;8.00;;
23608;SDS011;11982;50.810;4.442;2023-08-01T07:04:33;22.08;;;8.55;;
23608;SDS011;11982;50.810;4.442;2023-08-01T07:06:59;17.83;;;7.05;;
23608;SDS011;11982;50.810;4.442;2023-08-01T07:09:25;19.77;;;7.68;;
23608;SDS011;11982;50.810;4.442;2023-08-01T07:11:51;18.70;;;8.23;;
23608;SDS011;11982;50.810;4.442;2023-08-01T07:14:16;18.92;;;7.30;;
23608;SDS011;11982;50.810;4.442;2023-08-01T07:16:42;20.27;;;7.53;;
23608;SDS011;11982;50.810;4.442;2023-08-01T07:19:08;13.80;;;6.50;;
23608;SDS011;11982;50.810;4.442;2023-08-01T07:21:33;15.05;;;7.15;;
23608;SDS011;11982;50.810;4.442;2023-08-01T07:23:59;16.05;;;7.18;;
23608;SDS011;11982;50.810;4.442;2023-08-01T07:26:25;19.63;;;7.55;;
23608;SDS011;11982;50.810;4.442;2023-08-01T07:28:50;15.32;;;7.07;;
23608;SDS011;11982;50.810;4.442;2023-08-01T07:31:16;23.08;;;7.43;;
23608;SDS011;11982;50.810;4.442;2023-08-01T07:33:42;13.70;;;6.60;;
23608;SDS011;11982;50.810;4.442;2023-08-01T07:36:07;20.13;;;7.70;;
23608;SDS011;11982;50.810;4.442;2023-08-01T07:38:33;18.58;;;6.32;;
23608;SDS011;11982;50.810;4.442;2023-08-01T07:41:02;19.42;;;7.35;;
23608;SDS011;11982;50.810;4.442;2023-08-01T07:43:32;16.13;;;7.15;;
23608;SDS011;11982;50.810;4.442;2023-08-01T07:45:58;16.35;;;6.90;;
23608;SDS011;11982;50.810;4.442;2023-08-01T07:48:24;19.88;;;6.80;;
23608;SDS011;11982;50.810;4.442;2023-08-01T07:50:50;16.05;;;6.25;;
23608;SDS011;11982;50.810;4.442;2023-08-01T07:53:16;17.90;;;5.88;;
23608;SDS011;11982;50.810;4.442;2023-08-01T07:55:42;21.52;;;6.72;;
23608;SDS011;11982;50.810;4.442;2023-08-01T07:58:08;17.88;;;5.85;;
23608;SDS011;11982;50.810;4.442;2023-08-01T08:00:36;16.30;;;5.95;;
23608;SDS011;11982;50.810;4.442;2023-08-01T08:03:02;15.88;;;5.45;;
23608;SDS011;11982;50.810;4.442;2023-08-01T08:05:28;19.95;;;5.45;;
23608;SDS011;11982;50.810;4.442;2023-08-01T08:07:53;15.20;;;5.63;;
23608;SDS011;11982;50.810;4.442;2023-08-01T08:10:19;17.83;;;5.95;;
23608;SDS011;11982;50.810;4.442;2023-08-01T08:12:45;13.52;;;5.20;;
23608;SDS011;11982;50.810;4.442;2023-08-01T08:15:10;13.68;;;5.07;;
23608;SDS011;11982;50.810;4.442;2023-08-01T08:17:38;11.82;;;5.00;;
23608;SDS011;11982;50.810;4.442;2023-08-01T08:20:04;14.77;;;4.78;;
23608;SDS011;11982;50.810;4.442;2023-08-01T08:22:31;16.83;;;4.85;;
23608;SDS011;11982;50.810;4.442;2023-08-01T08:24:57;16.10;;;4.80;;
23608;SDS011;11982;50.810;4.442;2023-08-01T08:27:22;12.18;;;5.13;;
23608;SDS011;11982;50.810;4.442;2023-08-01T08:29:48;12.23;;;4.55;;
23608;SDS011;11982;50.810;4.442;2023-08-01T08:32:14;13.73;;;4.32;;
23608;SDS011;11982;50.810;4.442;2023-08-01T08:34:40;17.35;;;5.47;;
23608;SDS011;11982;50.810;4.442;2023-08-01T08:37:06;10.68;;;4.22;;
23608;SDS011;11982;50.810;4.442;2023-08-01T08:39:31;13.80;;;5.10;;
23608;SDS011;11982;50.810;4.442;2023-08-01T08:41:57;16.40;;;5.05;;
23608;SDS011;11982;50.810;4.442;2023-08-01T08:44:23;11.77;;;4.20;;
23608;SDS011;11982;50.810;4.442;2023-08-01T08:46:53;13.20;;;4.30;;
23608;SDS011;11982;50.810;4.442;2023-08-01T08:49:20;11.60;;;3.72;;
23608;SDS011;11982;50.810;4.442;2023-08-01T08:51:47;14.02;;;4.40;;
23608;SDS011;11982;50.810;4.442;2023-08-01T08:54:13;12.80;;;4.00;;
23608;SDS011;11982;50.810;4.442;2023-08-01T08:56:40;10.95;;;4.05;;
23608;SDS011;11982;50.810;4.442;2023-08-01T08:59:09;14.25;;;4.57;;
23608;SDS011;11982;50.810;4.442;2023-08-01T09:01:36;15.48;;;4.53;;
23608;SDS011;11982;50.810;4.442;2023-08-01T09:04:02;13.13;;;4.20;;
23608;SDS011;11982;50.810;4.442;2023-08-01T09:06:29;12.43;;;3.80;;
23608;SDS011;11982;50.810;4.442;2023-08-01T09:09:30;15.45;;;4.45;;
23608;SDS011;11982;50.810;4.442;2023-08-01T09:11:51;13.60;;;4.38;;
23608;SDS011;11982;50.810;4.442;2023-08-01T09:14:18;9.43;;;4.13;;
23608;SDS011;11982;50.810;4.442;2023-08-01T09:16:45;15.45;;;4.93;;
23608;SDS011;11982;50.810;4.442;2023-08-01T09:19:21;11.13;;;4.13;;
23608;SDS011;11982;50.810;4.442;2023-08-01T09:21:58;11.18;;;3.78;;
23608;SDS011;11982;50.810;4.442;2023-08-01T09:27:02;11.60;;;3.45;;
23608;SDS011;11982;50.810;4.442;2023-08-01T09:29:29;13.05;;;3.50;;
23608;SDS011;11982;50.810;4.442;2023-08-01T09:31:57;12.02;;;3.45;;
23608;SDS011;11982;50.810;4.442;2023-08-01T09:34:24;14.82;;;3.53;;
23608;SDS011;11982;50.810;4.442;2023-08-01T09:36:51;8.68;;;3.08;;
23608;SDS011;11982;50.810;4.442;2023-08-01T09:39:24;9.88;;;4.03;;
23608;SDS011;11982;50.810;4.442;2023-08-01T09:41:56;11.65;;;3.50;;
23608;SDS011;11982;50.810;4.442;2023-08-01T09:44:24;8.10;;;3.10;;
23608;SDS011;11982;50.810;4.442;2023-08-01T09:49:33;7.82;;;3.13;;
23608;SDS011;11982;50.810;4.442;2023-08-01T09:51:59;10.55;;;3.40;;
23608;SDS011;11982;50.810;4.442;2023-08-01T09:54:26;10.40;;;3.13;;
23608;SDS011;11982;50.810;4.442;2023-08-01T09:56:52;10.13;;;3.35;;
23608;SDS011;11982;50.810;4.442;2023-08-01T09:59:23;10.00;;;3.28;;
23608;SDS011;11982;50.810;4.442;2023-08-01T10:01:50;11.93;;;3.80;;
23608;SDS011;11982;50.810;4.442;2023-08-01T10:04:20;10.07;;;3.28;;
23608;SDS011;11982;50.810;4.442;2023-08-01T10:07:00;14.10;;;3.17;;
23608;SDS011;11982;50.810;4.442;2023-08-01T10:09:31;10.35;;;3.47;;
23608;SDS011;11982;50.810;4.442;2023-08-01T10:11:58;8.30;;;3.47;;
23608;SDS011;11982;50.810;4.442;2023-08-01T10:14:25;12.18;;;3.92;;
23608;SDS011;11982;50.810;4.442;2023-08-01T10:16:51;14.50;;;3.80;;
23608;SDS011;11982;50.810;4.442;2023-08-01T10:19:17;14.80;;;4.25;;
23608;SDS011;11982;50.810;4.442;2023-08-01T10:21:44;10.35;;;3.30;;
23608;SDS011;11982;50.810;4.442;2023-08-01T10:24:12;10.77;;;3.03;;
23608;SDS011;11982;50.810;4.442;2023-08-01T10:26:40;10.35;;;3.10;;
23608;SDS011;11982;50.810;4.442;2023-08-01T10:29:05;19.50;;;3.55;;
23608;SDS011;11982;50.810;4.442;2023-08-01T10:31:33;9.18;;;3.08;;
23608;SDS011;11982;50.810;4.442;2023-08-01T10:34:06;5.78;;;2.88;;
23608;SDS011;11982;50.810;4.442;2023-08-01T10:36:37;11.63;;;3.38;;
23608;SDS011;11982;50.810;4.442;2023-08-01T10:39:03;10.57;;;3.22;;
23608;SDS011;11982;50.810;4.442;2023-08-01T10:41:30;9.65;;;2.97;;
23608;SDS011;11982;50.810;4.442;2023-08-01T10:44:09;15.07;;;3.72;;
23608;SDS011;11982;50.810;4.442;2023-08-01T10:49:12;7.50;;;2.85;;
23608;SDS011;11982;50.810;4.442;2023-08-01T10:51:38;9.82;;;3.20;;
23608;SDS011;11982;50.810;4.442;2023-08-01T10:54:04;9.20;;;2.92;;
23608;SDS011;11982;50.810;4.442;2023-08-01T10:56:30;13.88;;;3.22;;
23608;SDS011;11982;50.810;4.442;2023-08-01T10:58:56;10.63;;;3.08;;
23608;SDS011;11982;50.810;4.442;2023-08-01T11:01:23;9.85;;;3.35;;
23608;SDS011;11982;50.810;4.442;2023-08-01T11:03:51;11.73;;;2.90;;
23608;SDS011;11982;50.810;4.442;2023-08-01T11:06:17;10.32;;;2.97;;
23608;SDS011;11982;50.810;4.442;2023-08-01T11:08:42;8.70;;;2.35;;
23608;SDS011;11982;50.810;4.442;2023-08-01T11:11:11;8.93;;;2.30;;
23608;SDS011;11982;50.810;4.442;2023-08-01T11:13:39;10.55;;;2.30;;
23608;SDS011;11982;50.810;4.442;2023-08-01T11:16:04;6.25;;;2.38;;
23608;SDS011;11982;50.810;4.442;2023-08-01T11:21:39;8.68;;;2.70;;
23608;SDS011;11982;50.810;4.442;2023-08-01T11:24:08;12.93;;;2.28;;
23608;SDS011;11982;50.810;4.442;2023-08-01T11:26:33;5.22;;;1.77;;
23608;SDS011;11982;50.810;4.442;2023-08-01T11:29:02;4.88;;;2.17;;
23608;SDS011;11982;50.810;4.442;2023-08-01T11:31:28;8.50;;;1.90;;
23608;SDS011;11982;50.810;4.442;2023-08-01T11:33:56;6.03;;;2.15;;
23608;SDS011;11982;50.810;4.442;2023-08-01T11:36:24;9.13;;;1.92;;
23608;SDS011;11982;50.810;4.442;2023-08-01T11:38:52;8.93;;;2.50;;
23608;SDS011;11982;50.810;4.442;2023-08-01T11:41:19;8.65;;;2.78;;
23608;SDS011;11982;50.810;4.442;2023-08-01T11:43:45;8.60;;;2.25;;
23608;SDS011;11982;50.810;4.442;2023-08-01T11:46:11;7.70;;;2.20;;
23608;SDS011;11982;50.810;4.442;2023-08-01T11:48:37;7.35;;;2.47;;
23608;SDS011;11982;50.810;4.442;2023-08-01T11:51:04;6.05;;;2.00;;
23608;SDS011;11982;50.810;4.442;2023-08-01T11:53:30;6.97;;;1.95;;
23608;SDS011;11982;50.810;4.442;2023-08-01T11:56:03;5.47;;;2.05;;
23608;SDS011;11982;50.810;4.442;2023-08-01T11:58:32;5.07;;;2.10;;
23608;SDS011;11982;50.810;4.442;2023-08-01T12:01:03;8.32;;;1.98;;
23608;SDS011;11982;50.810;4.442;2023-08-01T12:03:54;6.78;;;1.98;;
23608;SDS011;11982;50.810;4.442;2023-08-01T12:06:20;7.90;;;2.40;;
23608;SDS011;11982;50.810;4.442;2023-08-01T12:08:47;11.82;;;2.00;;
23608;SDS011;11982;50.810;4.442;2023-08-01T12:11:18;7.47;;;2.20;;
23608;SDS011;11982;50.810;4.442;2023-08-01T12:13:48;4.95;;;1.88;;
23608;SDS011;11982;50.810;4.442;2023-08-01T12:16:25;8.00;;;1.85;;
23608;SDS011;11982;50.810;4.442;2023-08-01T12:18:50;5.65;;;1.63;;
23608;SDS011;11982;50.810;4.442;2023-08-01T12:21:16;9.20;;;2.22;;
23608;SDS011;11982;50.810;4.442;2023-08-01T12:23:42;7.47;;;1.88;;
23608;SDS011;11982;50.810;4.442;2023-08-01T12:26:08;6.90;;;2.45;;
23608;SDS011;11982;50.810;4.442;2023-08-01T12:28:33;8.00;;;2.10;;
23608;SDS011;11982;50.810;4.442;2023-08-01T12:31:00;6.18;;;1.88;;
23608;SDS011;11982;50.810;4.442;2023-08-01T12:33:25;6.25;;;2.28;;
23608;SDS011;11982;50.810;4.442;2023-08-01T12:35:51;6.07;;;2.10;;
23608;SDS011;11982;50.810;4.442;2023-08-01T12:38:17;8.18;;;2.03;;
23608;SDS011;11982;50.810;4.442;2023-08-01T12:40:42;7.43;;;1.88;;
23608;SDS011;11982;50.810;4.442;2023-08-01T12:43:08;5.00;;;1.88;;
23608;SDS011;11982;50.810;4.442;2023-08-01T12:45:34;5.20;;;1.98;;
23608;SDS011;11982;50.810;4.442;2023-08-01T12:47:59;5.60;;;1.63;;
23608;SDS011;11982;50.810;4.442;2023-08-01T12:50:25;9.30;;;2.00;;
23608;SDS011;11982;50.810;4.442;2023-08-01T12:52:51;6.78;;;1.75;;
23608;SDS011;11982;50.810;4.442;2023-08-01T12:55:16;9.18;;;2.03;;
23608;SDS011;11982;50.810;4.442;2023-08-01T12:57:42;6.43;;;1.75;;
23608;SDS011;11982;50.810;4.442;2023-08-01T13:00:09;8.15;;;1.98;;
23608;SDS011;11982;50.810;4.442;2023-08-01T13:02:36;3.90;;;1.80;;
23608;SDS011;11982;50.810;4.442;2023-08-01T13:05:02;10.23;;;2.05;;
23608;SDS011;11982;50.810;4.442;2023-08-01T13:07:30;4.05;;;1.85;;
23608;SDS011;11982;50.810;4.442;2023-08-01T13:09:59;4.75;;;1.88;;
23608;SDS011;11982;50.810;4.442;2023-08-01T13:12:28;8.38;;;2.15;;
23608;SDS011;11982;50.810;4.442;2023-08-01T13:14:54;6.93;;;2.75;;
23608;SDS011;11982;50.810;4.442;2023-08-01T13:17:20;7.13;;;2.25;;
23608;SDS011;11982;50.810;4.442;2023-08-01T13:19:45;6.57;;;1.90;;
23608;SDS011;11982;50.810;4.442;2023-08-01T13:22:11;4.97;;;2.08;;
23608;SDS011;11982;50.810;4.442;2023-08-01T13:24:37;5.45;;;2.00;;
23608;SDS011;11982;50.810;4.442;2023-08-01T13:27:04;9.68;;;2.40;;
23608;SDS011;11982;50.810;4.442;2023-08-01T13:29:30;7.78;;;2.10;;
23608;SDS011;11982;50.810;4.442;2023-08-01T13:31:55;6.60;;;1.90;;
23608;SDS011;11982;50.810;4.442;2023-08-01T13:34:21;5.35;;;2.28;;
23608;SDS011;11982;50.810;4.442;2023-08-01T13:36:47;9.75;;;2.38;;
23608;SDS011;11982;50.810;4.442;2023-08-01T13:39:12;7.93;;;2.47;;
23608;SDS011;11982;50.810;4.442;2023-08-01T13:41:38;9.68;;;2.50;;
23608;SDS011;11982;50.810;4.442;2023-08-01T13:44:04;6.75;;;2.22;;
23608;SDS011;11982;50.810;4.442;2023-08-01T13:46:29;10.25;;;2.65;;
23608;SDS011;11982;50.810;4.442;2023-08-01T13:48:55;9.60;;;2.35;;
23608;SDS011;11982;50.810;4.442;2023-08-01T13:51:21;9.30;;;2.85;;
23608;SDS011;11982;50.810;4.442;2023-08-01T13:53:47;9.57;;;2.22;;
23608;SDS011;11982;50.810;4.442;2023-08-01T13:56:12;6.47;;;2.63;;
23608;SDS011;11982;50.810;4.442;2023-08-01T13:58:38;8.65;;;2.55;;
23608;SDS011;11982;50.810;4.442;2023-08-01T14:01:05;8.82;;;2.38;;
23608;SDS011;11982;50.810;4.442;2023-08-01T14:03:37;8.40;;;2.22;;
23608;SDS011;11982;50.810;4.442;2023-08-01T14:06:08;11.48;;;2.35;;
23608;SDS011;11982;50.810;4.442;2023-08-01T14:08:35;7.35;;;1.98;;
23608;SDS011;11982;50.810;4.442;2023-08-01T14:11:02;6.03;;;1.70;;
23608;SDS011;11982;50.810;4.442;2023-08-01T14:13:29;6.40;;;1.83;;
23608;SDS011;11982;50.810;4.442;2023-08-01T14:15:55;6.78;;;1.45;;
23608;SDS011;11982;50.810;4.442;2023-08-01T14:18:21;4.10;;;1.60;;
23608;SDS011;11982;50.810;4.442;2023-08-01T14:20:46;11.10;;;1.80;;
23608;SDS011;11982;50.810;4.442;2023-08-01T14:23:12;4.03;;;1.52;;
23608;SDS011;11982;50.810;4.442;2023-08-01T14:25:38;11.02;;;1.70;;
23608;SDS011;11982;50.810;4.442;2023-08-01T14:28:04;7.40;;;1.67;;
23608;SDS011;11982;50.810;4.442;2023-08-01T14:30:30;5.65;;;1.65;;
23608;SDS011;11982;50.810;4.442;2023-08-01T14:33:02;5.68;;;1.67;;
23608;SDS011;11982;50.810;4.442;2023-08-01T14:35:29;6.03;;;1.77;;
23608;SDS011;11982;50.810;4.442;2023-08-01T14:37:55;6.90;;;2.42;;
23608;SDS011;11982;50.810;4.442;2023-08-01T14:40:21;6.10;;;1.98;;
23608;SDS011;11982;50.810;4.442;2023-08-01T14:42:47;6.18;;;1.88;;